Terminal Aerodrome Forecast
Issued by NWS

Home | Current Version | Previous Version | Graphics & Text | Print | Product List | Glossary On
Versions: 1 2 3 4 5 6 7 8 9 10 11 12 13 14 15 16 17 18 19 20 21 22
000
FTUS43 KICT 250947 AAA
TAFSLN
TAF AMD
KSLN 250947Z 2510/2606 03007KT P6SM VCSH OVC010
      TEMPO 2510/2512 4SM TSRA BKN010CB
     FM251600 04007KT P6SM SCT015 BKN100
     FM252200 05006KT P6SM VCTS SCT035CB BKN080=

USA.gov is the U.S. government's official web portal to all federal, state and local government web resources and services.